SZG weather

Salzburg Airport
Salzburg, Salzburg, Austria

Public forecast

Using degrees Celsius for public forecast. Weather courtesy of forecast.io.

Current aviation weather report (METAR) for Salzburg Airport

Retrieved 2019/11/23 00:20 UTC (4 minutes ago):

LOWS 230020Z AUTO 15007KT 110V180 9999 NSC 09/M00 Q1004

Aviation forecast (TAF) for Salzburg Airport

Retrieved 2019-11-23 00:21 UTC (3 minutes ago):

TAF LOWS 222315Z 2300/2324 15007KT CAVOK TX12/2314Z TNM01/2301Z PROB40 TEMPO 2300/2306 33003KT 0700 FZBCFG BKN001 PROB30 TEMPO 2300/2302 VRB01KT 0300 FZFG BKN000 PROB40 TEMPO 2308/2315 15015G25KT